• Join FlightAware (Why Join?)
  • Login
  • US Flag 
10:04PM EDT


 

Airport Tracker/Info


-or-


 

Live Flight TrackerFlight Track Log ✈ GJS3615 ✈ 24-Jul-2013 ✈ KDEN - KGRR

Flight Track Log - Related Links

Times and Time Zones

All times are in EDT time to prevent confusion due to time zone crossing. See the GJS3615 flight status page for this flight to view local times or setup timezone preferences in your user account.

Time Position Orientation Groundspeed Altitude Reporting Facility
EDT Latitude Longitude Course Direction KTS MPH feet Rate Location/Type
09:54PM 39.8833 -104.5500 90° East 203 234 7,100  Level Denver TRACON
09:55PM 39.8833 -104.4667 90° East 266 306 8,600 1,560 Climbing Denver TRACON
09:56PM 39.8833 -104.3500 90° East 302 348 10,500 1,980 Climbing Denver TRACON
09:57PM 39.8869 -104.2950 85° East 301 346 11,600 1,620 Climbing Denver Center
09:58PM 39.9042 -104.1819 79° East 318 366 13,000 1,200 Climbing Denver Center
09:59PM 39.9242 -104.0431 79° East 361 415 14,200 1,500 Climbing Denver Center
10:00PM 39.9453 -103.9100 78° East 372 428 16,200 1,800 Climbing Denver Center
10:01PM 39.9728 -103.7675 76° East 376 433 18,000 1,380 Climbing Denver Center
10:02PM 39.9925 -103.6583 77° East 368 423 19,100 1,200 Climbing Denver Center
10:03PM 40.0050 -103.4858 85° East 401 461 20,600 1,140 Climbing Denver Center
10:04PM 40.0025 -103.3328 91° East 421 484 21,500 840 Climbing Denver Center
10:05PM 39.9997 -103.1711 91° East 441 507 22,400 780 Climbing Denver Center
10:06PM 39.9983 -103.0067 91° East 454 522 23,400 1,080 Climbing Denver Center
10:07PM 39.9967 -102.7700 90° East 467 537 24,900 1,140 Climbing Denver Center
10:08PM 39.9989 -102.6097 89° East 470 541 25,800 900 Climbing Denver Center
10:09PM 40.0017 -102.4242 89° East 460 529 26,800 840 Climbing Denver Center
10:10PM 40.0392 -102.2722 72° East 463 533 27,600 900 Climbing Denver Center
10:11PM 40.0819 -102.0908 73° East 469 540 28,700 840 Climbing Denver Center
10:12PM 40.1214 -101.9319 72° East 478 550 29,400 600 Climbing Denver Center
10:13PM 40.1678 -101.7419 72° East 492 566 30,000 480 Climbing Denver Center
10:14PM 40.2081 -101.5750 72° East 503 579 30,500 480 Climbing Denver Center
10:15PM 40.2483 -101.4044 73° East 512 589 31,000 660 Climbing Denver Center
10:16PM 40.2953 -101.2022 73° East 520 598 31,900 720 Climbing Denver Center
10:18PM 40.3358 -101.0306 73° East 519 597 32,700 780 Climbing Denver Center
10:19PM 40.3889 -100.8000 73° East 521 600 33,700 720 Climbing Denver Center
10:20PM 40.4225 -100.6558 73° East 522 601 34,300 780 Climbing Denver Center
10:21PM 40.4742 -100.4258 73° East 519 597 35,500 960 Climbing Denver Center
10:22PM 40.5258 -100.2000 73° East 510 587 36,600 960 Climbing Denver Center
10:23PM 40.5694 -100.0058 73° East 498 573 37,600 840 Climbing Denver Center
10:24PM 40.6078 -99.8333 74° East 488 562 38,400 660 Climbing Denver Center
10:25PM 40.6444 -99.6653 74° East 480 552 39,000 300 Climbing Denver Center
10:26PM 40.6672 -99.5669 73° East 479 551 39,000  Level Minneapolis Center
10:27PM 40.7172 -99.3264 75° East 485 558 39,000  Level Denver Center
10:28PM 40.7547 -99.1531 74° East 493 567 39,000  Level Denver Center
10:29PM 40.7897 -98.9892 74° East 499 574 39,000  Level Minneapolis Center
10:30PM 40.8269 -98.8092 75° East 507 583 39,000  Level Minneapolis Center
10:31PM 40.8647 -98.6253 75° East 516 594 39,000  Level Minneapolis Center
10:32PM 40.9033 -98.4419 74° East 518 596 39,000  Level Minneapolis Center
10:33PM 40.9422 -98.2550 75° East 518 596 39,000  Level Minneapolis Center
10:34PM 40.9794 -98.0722 75° East 518 596 39,000  Level Minneapolis Center
10:35PM 41.0169 -97.8889 75° East 517 595 39,000  Level Minneapolis Center
10:36PM 41.0542 -97.7067 75° East 516 594 39,000  Level Minneapolis Center
10:37PM 41.0903 -97.5269 75° East 512 589 39,000  Level Minneapolis Center
10:38PM 41.1322 -97.3142 75° East 505 581 39,000  Level Minneapolis Center
10:39PM 41.1669 -97.1369 75° East 501 577 39,000  Level Minneapolis Center
10:40PM 41.2028 -96.9553 75° East 505 581 39,000  Level Minneapolis Center
10:41PM 41.2372 -96.7719 76° East 511 588 39,000  Level Minneapolis Center
10:42PM 41.2722 -96.5869 76° East 516 594 39,000  Level Minneapolis Center
10:43PM 41.3078 -96.4039 75° East 513 590 39,000  Level Minneapolis Center
10:44PM 41.3414 -96.2183 76° East 513 590 39,000  Level Minneapolis Center
10:45PM 41.3744 -96.0367 76° East 507 583 39,000  Level Minneapolis Center
10:46PM 41.4078 -95.8547 76° East 506 582 39,000  Level Minneapolis Center
10:47PM 41.4472 -95.6358 76° East 507 583 39,000  Level Minneapolis Center
10:48PM 41.4761 -95.4742 77° East 505 581 39,000  Level Minneapolis Center
10:50PM 41.5083 -95.2922 77° East 504 580 39,000  Level Minneapolis Center
10:51PM 41.5417 -95.1081 76° East 509 586 39,000  Level Minneapolis Center
10:52PM 41.5728 -94.9258 77° East 507 583 39,000  Level Minneapolis Center
10:53PM 41.6117 -94.7031 77° East 512 589 39,000  Level Minneapolis Center
10:54PM 41.6425 -94.5194 77° East 509 586 39,000  Level Minneapolis Center
10:55PM 41.6739 -94.3344 77° East 510 587 39,000  Level Minneapolis Center
10:56PM 41.7039 -94.1511 78° East 507 583 39,000  Level Minneapolis Center
10:57PM 41.7347 -93.9669 77° East 507 583 39,000  Level Minneapolis Center
10:58PM 41.7622 -93.7986 78° East 505 581 39,000  Level Minneapolis Center
10:59PM 41.7919 -93.6158 78° East 506 582 39,000  Level Minneapolis Center
11:00PM 41.8275 -93.3956 78° East 508 585 39,000  Level Minneapolis Center
11:01PM 41.8558 -93.2111 78° East 508 585 39,000  Level Minneapolis Center
11:02PM 41.8844 -93.0289 78° East 505 581 39,000  Level Minneapolis Center
11:03PM 41.9083 -92.8689 79° East 505 581 39,000  Level Chicago Center
11:04PM 41.9367 -92.6867 78° East 506 582 39,000  Level Chicago Center
11:05PM 41.9636 -92.5036 79° East 506 582 39,000  Level Chicago Center
11:06PM 41.9914 -92.3231 78° East 502 578 39,000  Level Chicago Center
11:07PM 42.0178 -92.1378 79° East 507 583 39,000  Level Chicago Center
11:08PM 42.0453 -91.9567 78° East 505 581 39,000  Level Chicago Center
11:09PM 42.0717 -91.7747 79° East 505 581 39,000  Level Chicago Center
11:10PM 42.1025 -91.5553 79° East 505 581 39,000  Level Chicago Center
11:11PM 42.1286 -91.3733 79° East 505 581 39,000  Level Chicago Center
11:12PM 42.1536 -91.1914 79° East 503 579 39,000  Level Chicago Center
11:13PM 42.1781 -91.0106 80° East 501 577 39,000  Level Chicago Center
11:14PM 42.2003 -90.8328 80° East 490 564 39,000  Level Chicago Center
11:15PM 42.2250 -90.6511 80° East 499 574 39,000  Level Chicago Center
11:16PM 42.2522 -90.4356 80° East 493 567 39,000  Level Chicago Center
11:17PM 42.2783 -90.2581 79° East 489 563 39,000  Level Chicago Center
11:18PM 42.3064 -90.0800 78° East 489 563 39,000  Level Chicago Center
11:19PM 42.3317 -89.9028 79° East 489 563 39,000  Level Chicago Center
11:20PM 42.3572 -89.7253 79° East 485 558 39,000  Level Chicago Center
11:21PM 42.3822 -89.5461 79° East 486 559 39,000  Level Chicago Center
11:22PM 42.4108 -89.3372 79° East 486 559 39,000  Level Chicago Center
11:23PM 42.4364 -89.1583 79° East 488 562 39,000  Level Chicago Center
11:24PM 42.4614 -88.9808 79° East 485 558 39,000  Level Chicago Center
11:25PM 42.4847 -88.8006 80° East 487 560 39,000  Level Chicago Center
11:26PM 42.5094 -88.6225 79° East 485 558 39,000  Level Chicago Center
11:27PM 42.5342 -88.4428 79° East 485 558 39,000 -960 Level Chicago Center
11:28PM 42.5581 -88.2592 80° East 494 568 37,100 -1,020 Descending Chicago Center
11:29PM 42.5814 -88.0811 80° East 486 559 37,000 -840 Descending Chicago Center
11:30PM 42.6022 -87.9147 80° East 457 526 35,500 -2,280 Descending Chicago Center
11:31PM 42.6278 -87.7158 80° East 459 528 32,400 -2,820 Descending Chicago Center
11:32PM 42.6500 -87.5392 80° East 472 543 29,800 -2,460 Descending Chicago Center
11:33PM 42.6708 -87.3772 80° East 477 549 27,400 -2,460 Descending Chicago Center
11:34PM 42.6900 -87.2064 81° East 463 533 24,800 -2,640 Descending Chicago Center
11:35PM 42.7100 -87.0428 81° East 443 510 22,100 -2,640 Descending Chicago Center
11:36PM 42.7297 -86.8878 80° East 422 486 19,500 -2,400 Descending Chicago Center
11:37PM 42.7467 -86.7375 81° East 408 470 17,300 -2,220 Descending Chicago Center
11:38PM 42.7639 -86.5942 81° East 391 450 15,100 -2,400 Descending Chicago Center
11:39PM 42.7825 -86.4275 81° East 376 433 12,500 -2,040 Descending Chicago Center
11:40PM 42.7972 -86.2986 81° East 352 405 11,100 -1,440 Descending Chicago Center
11:41PM 42.8092 -86.1883 82° East 304 350 9,700 -1,620 Descending Chicago Center
11:42PM 42.8211 -86.0803 81° East 294 338 7,900 -1,860 Descending Chicago Center
11:43PM 42.8297 -85.9767 83° East 283 326 6,000 -1,800 Descending Chicago Center
11:44PM 42.8383 -85.8786 83° East 269 310 4,300 -1,320 Descending Chicago Center
11:45PM 42.8492 -85.7856 81° East 257 296 3,400 -720 Descending Chicago Center
11:46PM 42.8569 -85.7142 82° East 204 235 2,900 -600 Descending Chicago Center
11:47PM 42.8633 -85.6572 81° East 160 184 2,300 -600 Descending Chicago Center
11:48PM 42.8694 -85.6056 81° East 145 167 1,700 -780 Descending Chicago Center
11:49PM 42.8761 -85.5419 82° East 142 163 800 -900 Descending Chicago Center
11:51PM 42.8667 -85.5167 90° East  Level FlightAware Approximate
11:58PM 42.8808 -85.5228 90° East  Level Estimated